sensor_id;sensor_type;location;lat;lon;timestamp;P1;durP1;ratioP1;P2;durP2;ratioP2
5333;SDS011;2689;50.954;7.116;2024-02-04T00:00:07;7.60;;;6.80;;
5333;SDS011;2689;50.954;7.116;2024-02-04T00:02:35;7.37;;;6.30;;
5333;SDS011;2689;50.954;7.116;2024-02-04T00:05:05;6.00;;;5.43;;
5333;SDS011;2689;50.954;7.116;2024-02-04T00:07:32;6.77;;;6.17;;
5333;SDS011;2689;50.954;7.116;2024-02-04T00:09:58;4.60;;;3.90;;
5333;SDS011;2689;50.954;7.116;2024-02-04T00:12:25;5.23;;;4.73;;
5333;SDS011;2689;50.954;7.116;2024-02-04T00:14:52;4.10;;;3.80;;
5333;SDS011;2689;50.954;7.116;2024-02-04T00:17:19;3.27;;;2.33;;
5333;SDS011;2689;50.954;7.116;2024-02-04T00:19:46;2.40;;;1.97;;
5333;SDS011;2689;50.954;7.116;2024-02-04T00:22:14;4.13;;;2.10;;
5333;SDS011;2689;50.954;7.116;2024-02-04T00:24:43;2.40;;;2.20;;
5333;SDS011;2689;50.954;7.116;2024-02-04T00:27:10;2.23;;;1.33;;
5333;SDS011;2689;50.954;7.116;2024-02-04T00:29:37;2.30;;;2.10;;
5333;SDS011;2689;50.954;7.116;2024-02-04T00:32:04;2.70;;;2.50;;
5333;SDS011;2689;50.954;7.116;2024-02-04T00:34:31;2.40;;;2.20;;
5333;SDS011;2689;50.954;7.116;2024-02-04T00:36:57;2.63;;;2.40;;
5333;SDS011;2689;50.954;7.116;2024-02-04T00:39:26;6.73;;;2.80;;
5333;SDS011;2689;50.954;7.116;2024-02-04T00:41:53;3.50;;;3.20;;
5333;SDS011;2689;50.954;7.116;2024-02-04T00:44:20;4.87;;;4.47;;
5333;SDS011;2689;50.954;7.116;2024-02-04T00:46:47;5.40;;;4.90;;
5333;SDS011;2689;50.954;7.116;2024-02-04T00:49:14;6.10;;;5.50;;
5333;SDS011;2689;50.954;7.116;2024-02-04T00:51:41;6.07;;;5.20;;
5333;SDS011;2689;50.954;7.116;2024-02-04T00:54:08;6.60;;;6.00;;
5333;SDS011;2689;50.954;7.116;2024-02-04T00:56:37;6.20;;;5.60;;
5333;SDS011;2689;50.954;7.116;2024-02-04T00:59:04;6.97;;;5.60;;
5333;SDS011;2689;50.954;7.116;2024-02-04T01:01:31;5.70;;;5.20;;
5333;SDS011;2689;50.954;7.116;2024-02-04T01:03:57;6.20;;;5.60;;
5333;SDS011;2689;50.954;7.116;2024-02-04T01:06:24;4.83;;;4.33;;
5333;SDS011;2689;50.954;7.116;2024-02-04T01:08:52;4.33;;;3.93;;
5333;SDS011;2689;50.954;7.116;2024-02-04T01:11:19;4.60;;;4.00;;
5333;SDS011;2689;50.954;7.116;2024-02-04T01:13:48;4.17;;;3.77;;
5333;SDS011;2689;50.954;7.116;2024-02-04T01:16:15;7.00;;;3.90;;
5333;SDS011;2689;50.954;7.116;2024-02-04T01:18:41;4.53;;;3.53;;
5333;SDS011;2689;50.954;7.116;2024-02-04T01:21:09;3.50;;;3.13;;
5333;SDS011;2689;50.954;7.116;2024-02-04T01:23:36;2.40;;;2.20;;
5333;SDS011;2689;50.954;7.116;2024-02-04T01:26:03;4.90;;;3.10;;
5333;SDS011;2689;50.954;7.116;2024-02-04T01:28:30;3.47;;;2.87;;
5333;SDS011;2689;50.954;7.116;2024-02-04T01:30:58;2.60;;;2.40;;
5333;SDS011;2689;50.954;7.116;2024-02-04T01:33:25;2.50;;;2.10;;
5333;SDS011;2689;50.954;7.116;2024-02-04T01:35:52;6.57;;;3.13;;
5333;SDS011;2689;50.954;7.116;2024-02-04T01:38:19;1.97;;;1.77;;
5333;SDS011;2689;50.954;7.116;2024-02-04T01:40:46;2.57;;;2.37;;
5333;SDS011;2689;50.954;7.116;2024-02-04T01:43:12;2.17;;;1.97;;
5333;SDS011;2689;50.954;7.116;2024-02-04T01:45:39;4.37;;;2.30;;
5333;SDS011;2689;50.954;7.116;2024-02-04T01:48:08;2.30;;;2.10;;
5333;SDS011;2689;50.954;7.116;2024-02-04T01:50:35;2.40;;;2.13;;
5333;SDS011;2689;50.954;7.116;2024-02-04T01:53:02;3.93;;;2.40;;
5333;SDS011;2689;50.954;7.116;2024-02-04T01:55:30;3.10;;;2.50;;
5333;SDS011;2689;50.954;7.116;2024-02-04T01:57:56;2.33;;;2.03;;
5333;SDS011;2689;50.954;7.116;2024-02-04T02:00:23;2.10;;;1.90;;
5333;SDS011;2689;50.954;7.116;2024-02-04T02:02:50;1.70;;;1.60;;
5333;SDS011;2689;50.954;7.116;2024-02-04T02:05:21;2.27;;;1.80;;
5333;SDS011;2689;50.954;7.116;2024-02-04T02:07:47;2.30;;;2.10;;
5333;SDS011;2689;50.954;7.116;2024-02-04T02:10:16;2.40;;;2.20;;
5333;SDS011;2689;50.954;7.116;2024-02-04T02:12:43;2.97;;;2.30;;
5333;SDS011;2689;50.954;7.116;2024-02-04T02:15:18;2.40;;;2.20;;
5333;SDS011;2689;50.954;7.116;2024-02-04T02:17:48;2.53;;;2.33;;
5333;SDS011;2689;50.954;7.116;2024-02-04T02:20:21;3.07;;;2.83;;
5333;SDS011;2689;50.954;7.116;2024-02-04T02:22:56;2.80;;;2.50;;
5333;SDS011;2689;50.954;7.116;2024-02-04T02:25:30;3.90;;;3.10;;
5333;SDS011;2689;50.954;7.116;2024-02-04T02:27:58;4.07;;;3.17;;
5333;SDS011;2689;50.954;7.116;2024-02-04T02:30:25;2.67;;;2.47;;
5333;SDS011;2689;50.954;7.116;2024-02-04T02:32:52;3.53;;;3.03;;
5333;SDS011;2689;50.954;7.116;2024-02-04T02:35:19;3.73;;;3.43;;
5333;SDS011;2689;50.954;7.116;2024-02-04T02:37:47;3.60;;;3.27;;
5333;SDS011;2689;50.954;7.116;2024-02-04T02:40:22;5.00;;;3.67;;
5333;SDS011;2689;50.954;7.116;2024-02-04T02:42:54;3.67;;;3.37;;
5333;SDS011;2689;50.954;7.116;2024-02-04T02:45:23;3.73;;;3.33;;
5333;SDS011;2689;50.954;7.116;2024-02-04T02:47:52;4.50;;;2.93;;
5333;SDS011;2689;50.954;7.116;2024-02-04T02:50:20;4.50;;;3.43;;
5333;SDS011;2689;50.954;7.116;2024-02-04T02:52:47;6.30;;;3.23;;
5333;SDS011;2689;50.954;7.116;2024-02-04T02:55:13;2.53;;;2.23;;
5333;SDS011;2689;50.954;7.116;2024-02-04T02:57:41;3.07;;;2.77;;
5333;SDS011;2689;50.954;7.116;2024-02-04T03:00:10;4.10;;;3.50;;
5333;SDS011;2689;50.954;7.116;2024-02-04T03:02:38;5.07;;;3.13;;
5333;SDS011;2689;50.954;7.116;2024-02-04T03:05:05;3.10;;;2.80;;
5333;SDS011;2689;50.954;7.116;2024-02-04T03:07:32;3.40;;;3.03;;
5333;SDS011;2689;50.954;7.116;2024-02-04T03:09:59;3.20;;;2.70;;
5333;SDS011;2689;50.954;7.116;2024-02-04T03:12:26;3.50;;;3.20;;
5333;SDS011;2689;50.954;7.116;2024-02-04T03:14:52;4.93;;;3.30;;
5333;SDS011;2689;50.954;7.116;2024-02-04T03:17:21;4.10;;;3.70;;
5333;SDS011;2689;50.954;7.116;2024-02-04T03:19:49;3.27;;;2.73;;
5333;SDS011;2689;50.954;7.116;2024-02-04T03:22:16;3.63;;;3.33;;
5333;SDS011;2689;50.954;7.116;2024-02-04T03:24:43;3.40;;;3.00;;
5333;SDS011;2689;50.954;7.116;2024-02-04T03:27:11;3.30;;;2.83;;
5333;SDS011;2689;50.954;7.116;2024-02-04T03:29:37;4.40;;;4.00;;
5333;SDS011;2689;50.954;7.116;2024-02-04T03:32:04;3.00;;;2.43;;
5333;SDS011;2689;50.954;7.116;2024-02-04T03:34:33;3.90;;;2.70;;
5333;SDS011;2689;50.954;7.116;2024-02-04T03:37:00;3.83;;;3.53;;
5333;SDS011;2689;50.954;7.116;2024-02-04T03:39:27;3.83;;;3.07;;
5333;SDS011;2689;50.954;7.116;2024-02-04T03:41:54;4.23;;;3.60;;
5333;SDS011;2689;50.954;7.116;2024-02-04T03:44:21;3.60;;;3.13;;
5333;SDS011;2689;50.954;7.116;2024-02-04T03:46:48;3.80;;;3.50;;
5333;SDS011;2689;50.954;7.116;2024-02-04T03:49:15;3.10;;;2.50;;
5333;SDS011;2689;50.954;7.116;2024-02-04T03:51:44;4.40;;;3.90;;
5333;SDS011;2689;50.954;7.116;2024-02-04T03:54:11;4.00;;;3.60;;
5333;SDS011;2689;50.954;7.116;2024-02-04T03:56:39;4.17;;;3.73;;
5333;SDS011;2689;50.954;7.116;2024-02-04T03:59:07;4.10;;;3.70;;
5333;SDS011;2689;50.954;7.116;2024-02-04T04:01:35;6.60;;;2.97;;
5333;SDS011;2689;50.954;7.116;2024-02-04T04:04:02;5.10;;;4.60;;
5333;SDS011;2689;50.954;7.116;2024-02-04T04:06:29;5.77;;;3.90;;
5333;SDS011;2689;50.954;7.116;2024-02-04T04:08:58;4.60;;;4.20;;
5333;SDS011;2689;50.954;7.116;2024-02-04T04:11:25;5.27;;;4.10;;
5333;SDS011;2689;50.954;7.116;2024-02-04T04:13:51;3.40;;;2.90;;
5333;SDS011;2689;50.954;7.116;2024-02-04T04:16:20;4.23;;;3.90;;
5333;SDS011;2689;50.954;7.116;2024-02-04T04:18:47;5.07;;;4.00;;
5333;SDS011;2689;50.954;7.116;2024-02-04T04:21:14;5.60;;;5.00;;
5333;SDS011;2689;50.954;7.116;2024-02-04T04:23:40;7.27;;;4.57;;
5333;SDS011;2689;50.954;7.116;2024-02-04T04:26:09;6.10;;;4.93;;
5333;SDS011;2689;50.954;7.116;2024-02-04T04:28:35;6.97;;;5.70;;
5333;SDS011;2689;50.954;7.116;2024-02-04T04:31:02;6.10;;;5.50;;
5333;SDS011;2689;50.954;7.116;2024-02-04T04:33:29;5.60;;;5.10;;
5333;SDS011;2689;50.954;7.116;2024-02-04T04:35:56;5.33;;;4.83;;
5333;SDS011;2689;50.954;7.116;2024-02-04T04:38:23;5.53;;;5.00;;
5333;SDS011;2689;50.954;7.116;2024-02-04T04:40:50;6.13;;;4.30;;
5333;SDS011;2689;50.954;7.116;2024-02-04T04:43:18;5.20;;;4.70;;
5333;SDS011;2689;50.954;7.116;2024-02-04T04:45:45;5.20;;;4.67;;
5333;SDS011;2689;50.954;7.116;2024-02-04T04:48:12;4.83;;;3.90;;
5333;SDS011;2689;50.954;7.116;2024-02-04T04:50:39;5.30;;;4.47;;
5333;SDS011;2689;50.954;7.116;2024-02-04T04:53:05;3.30;;;3.00;;
5333;SDS011;2689;50.954;7.116;2024-02-04T04:55:32;5.10;;;4.60;;
5333;SDS011;2689;50.954;7.116;2024-02-04T04:57:59;5.33;;;3.43;;
5333;SDS011;2689;50.954;7.116;2024-02-04T05:00:27;4.53;;;4.00;;
5333;SDS011;2689;50.954;7.116;2024-02-04T05:02:54;4.73;;;4.33;;
5333;SDS011;2689;50.954;7.116;2024-02-04T05:05:21;4.63;;;4.00;;
5333;SDS011;2689;50.954;7.116;2024-02-04T05:07:48;5.63;;;3.90;;
5333;SDS011;2689;50.954;7.116;2024-02-04T05:10:15;5.10;;;4.60;;
5333;SDS011;2689;50.954;7.116;2024-02-04T05:12:41;4.80;;;3.93;;
5333;SDS011;2689;50.954;7.116;2024-02-04T05:15:08;5.30;;;4.33;;
5333;SDS011;2689;50.954;7.116;2024-02-04T05:17:37;5.10;;;4.60;;
5333;SDS011;2689;50.954;7.116;2024-02-04T05:20:04;4.80;;;4.17;;
5333;SDS011;2689;50.954;7.116;2024-02-04T05:22:32;5.60;;;4.57;;
5333;SDS011;2689;50.954;7.116;2024-02-04T05:24:59;5.03;;;4.53;;
5333;SDS011;2689;50.954;7.116;2024-02-04T05:27:26;4.97;;;4.57;;
5333;SDS011;2689;50.954;7.116;2024-02-04T05:29:53;6.67;;;5.70;;
5333;SDS011;2689;50.954;7.116;2024-02-04T05:32:20;4.40;;;4.00;;
5333;SDS011;2689;50.954;7.116;2024-02-04T05:34:49;6.63;;;5.37;;
5333;SDS011;2689;50.954;7.116;2024-02-04T05:37:16;6.20;;;4.90;;
5333;SDS011;2689;50.954;7.116;2024-02-04T05:39:43;6.63;;;4.83;;
5333;SDS011;2689;50.954;7.116;2024-02-04T05:42:09;5.63;;;5.13;;
5333;SDS011;2689;50.954;7.116;2024-02-04T05:44:36;5.50;;;4.93;;
5333;SDS011;2689;50.954;7.116;2024-02-04T05:47:03;6.40;;;5.10;;
5333;SDS011;2689;50.954;7.116;2024-02-04T05:49:30;5.63;;;5.10;;
5333;SDS011;2689;50.954;7.116;2024-02-04T05:51:58;7.93;;;5.20;;
5333;SDS011;2689;50.954;7.116;2024-02-04T05:54:25;6.73;;;5.13;;
5333;SDS011;2689;50.954;7.116;2024-02-04T05:56:52;5.23;;;4.73;;
5333;SDS011;2689;50.954;7.116;2024-02-04T05:59:18;6.53;;;5.67;;
5333;SDS011;2689;50.954;7.116;2024-02-04T06:01:45;4.97;;;3.70;;
5333;SDS011;2689;50.954;7.116;2024-02-04T06:04:12;4.70;;;4.23;;
5333;SDS011;2689;50.954;7.116;2024-02-04T06:06:39;5.50;;;4.70;;
5333;SDS011;2689;50.954;7.116;2024-02-04T06:09:07;5.40;;;4.90;;
5333;SDS011;2689;50.954;7.116;2024-02-04T06:11:35;6.33;;;5.73;;
5333;SDS011;2689;50.954;7.116;2024-02-04T06:14:02;6.70;;;4.73;;
5333;SDS011;2689;50.954;7.116;2024-02-04T06:16:28;5.67;;;5.13;;
5333;SDS011;2689;50.954;7.116;2024-02-04T06:18:55;5.50;;;4.93;;
5333;SDS011;2689;50.954;7.116;2024-02-04T06:21:23;9.73;;;6.00;;
5333;SDS011;2689;50.954;7.116;2024-02-04T06:23:50;6.00;;;4.60;;
5333;SDS011;2689;50.954;7.116;2024-02-04T06:26:18;4.27;;;3.87;;
5333;SDS011;2689;50.954;7.116;2024-02-04T06:28:45;3.50;;;3.20;;
5333;SDS011;2689;50.954;7.116;2024-02-04T06:31:13;5.80;;;5.00;;
5333;SDS011;2689;50.954;7.116;2024-02-04T06:33:40;7.20;;;5.20;;
5333;SDS011;2689;50.954;7.116;2024-02-04T06:36:08;5.30;;;4.67;;
5333;SDS011;2689;50.954;7.116;2024-02-04T06:38:35;8.70;;;5.60;;
5333;SDS011;2689;50.954;7.116;2024-02-04T06:41:03;6.60;;;5.30;;
5333;SDS011;2689;50.954;7.116;2024-02-04T06:43:31;6.20;;;4.90;;
5333;SDS011;2689;50.954;7.116;2024-02-04T06:45:59;8.20;;;5.43;;
5333;SDS011;2689;50.954;7.116;2024-02-04T06:48:25;5.13;;;4.60;;
5333;SDS011;2689;50.954;7.116;2024-02-04T06:50:52;5.73;;;4.37;;
5333;SDS011;2689;50.954;7.116;2024-02-04T06:53:19;5.50;;;4.13;;
5333;SDS011;2689;50.954;7.116;2024-02-04T06:55:47;4.77;;;4.27;;
5333;SDS011;2689;50.954;7.116;2024-02-04T06:58:14;4.23;;;3.60;;
5333;SDS011;2689;50.954;7.116;2024-02-04T07:00:43;6.80;;;3.87;;
5333;SDS011;2689;50.954;7.116;2024-02-04T07:03:09;4.53;;;4.00;;
5333;SDS011;2689;50.954;7.116;2024-02-04T07:05:37;5.97;;;4.30;;
5333;SDS011;2689;50.954;7.116;2024-02-04T07:08:04;3.40;;;2.93;;
5333;SDS011;2689;50.954;7.116;2024-02-04T07:10:30;3.90;;;3.17;;
5333;SDS011;2689;50.954;7.116;2024-02-04T07:12:57;5.93;;;3.60;;
5333;SDS011;2689;50.954;7.116;2024-02-04T07:15:24;4.87;;;3.70;;
5333;SDS011;2689;50.954;7.116;2024-02-04T07:17:52;5.17;;;3.60;;
5333;SDS011;2689;50.954;7.116;2024-02-04T07:20:19;4.10;;;3.70;;
5333;SDS011;2689;50.954;7.116;2024-02-04T07:22:46;6.67;;;5.30;;
5333;SDS011;2689;50.954;7.116;2024-02-04T07:25:13;6.60;;;4.13;;
5333;SDS011;2689;50.954;7.116;2024-02-04T07:27:39;4.77;;;3.93;;
5333;SDS011;2689;50.954;7.116;2024-02-04T07:30:07;4.63;;;4.20;;
5333;SDS011;2689;50.954;7.116;2024-02-04T07:32:34;6.30;;;3.30;;
5333;SDS011;2689;50.954;7.116;2024-02-04T07:35:03;4.63;;;4.20;;
5333;SDS011;2689;50.954;7.116;2024-02-04T07:37:31;3.67;;;3.33;;
5333;SDS011;2689;50.954;7.116;2024-02-04T07:39:58;3.87;;;3.40;;
5333;SDS011;2689;50.954;7.116;2024-02-04T07:42:26;4.00;;;3.13;;
5333;SDS011;2689;50.954;7.116;2024-02-04T07:44:53;4.90;;;3.40;;
5333;SDS011;2689;50.954;7.116;2024-02-04T07:47:20;3.53;;;3.10;;
5333;SDS011;2689;50.954;7.116;2024-02-04T07:49:47;6.10;;;2.60;;
5333;SDS011;2689;50.954;7.116;2024-02-04T07:52:15;4.53;;;3.47;;
5333;SDS011;2689;50.954;7.116;2024-02-04T07:54:42;4.43;;;3.13;;
5333;SDS011;2689;50.954;7.116;2024-02-04T07:57:09;4.10;;;3.00;;
5333;SDS011;2689;50.954;7.116;2024-02-04T07:59:36;3.70;;;3.37;;
5333;SDS011;2689;50.954;7.116;2024-02-04T08:02:03;6.20;;;3.20;;
5333;SDS011;2689;50.954;7.116;2024-02-04T08:04:32;3.53;;;3.20;;
5333;SDS011;2689;50.954;7.116;2024-02-04T08:06:58;4.77;;;3.43;;
5333;SDS011;2689;50.954;7.116;2024-02-04T08:09:27;8.43;;;3.23;;
5333;SDS011;2689;50.954;7.116;2024-02-04T08:11:54;3.30;;;3.00;;
5333;SDS011;2689;50.954;7.116;2024-02-04T08:14:20;2.27;;;2.07;;
5333;SDS011;2689;50.954;7.116;2024-02-04T08:16:47;4.70;;;2.33;;
5333;SDS011;2689;50.954;7.116;2024-02-04T08:19:14;1.93;;;1.73;;
5333;SDS011;2689;50.954;7.116;2024-02-04T08:21:41;2.73;;;2.33;;
5333;SDS011;2689;50.954;7.116;2024-02-04T08:24:08;3.10;;;1.80;;
5333;SDS011;2689;50.954;7.116;2024-02-04T08:26:36;2.73;;;2.17;;
5333;SDS011;2689;50.954;7.116;2024-02-04T08:29:04;2.53;;;2.03;;
5333;SDS011;2689;50.954;7.116;2024-02-04T08:31:31;3.40;;;2.03;;
5333;SDS011;2689;50.954;7.116;2024-02-04T08:33:59;2.30;;;2.10;;
5333;SDS011;2689;50.954;7.116;2024-02-04T08:36:27;2.57;;;1.87;;
5333;SDS011;2689;50.954;7.116;2024-02-04T08:38:55;2.30;;;2.10;;
5333;SDS011;2689;50.954;7.116;2024-02-04T08:41:22;2.53;;;1.70;;
5333;SDS011;2689;50.954;7.116;2024-02-04T08:43:51;1.60;;;1.40;;
5333;SDS011;2689;50.954;7.116;2024-02-04T08:46:19;2.47;;;1.97;;
5333;SDS011;2689;50.954;7.116;2024-02-04T08:48:46;3.03;;;2.10;;
5333;SDS011;2689;50.954;7.116;2024-02-04T08:51:13;2.53;;;2.10;;
5333;SDS011;2689;50.954;7.116;2024-02-04T08:53:41;2.27;;;2.00;;
5333;SDS011;2689;50.954;7.116;2024-02-04T08:56:08;2.10;;;1.90;;
5333;SDS011;2689;50.954;7.116;2024-02-04T08:58:36;2.17;;;1.90;;
5333;SDS011;2689;50.954;7.116;2024-02-04T09:01:05;2.93;;;2.20;;
5333;SDS011;2689;50.954;7.116;2024-02-04T09:03:32;2.97;;;1.80;;
5333;SDS011;2689;50.954;7.116;2024-02-04T09:05:59;3.17;;;1.90;;
5333;SDS011;2689;50.954;7.116;2024-02-04T09:08:26;2.47;;;1.93;;
5333;SDS011;2689;50.954;7.116;2024-02-04T09:10:53;3.03;;;2.30;;
5333;SDS011;2689;50.954;7.116;2024-02-04T09:13:20;2.03;;;1.50;;
5333;SDS011;2689;50.954;7.116;2024-02-04T09:15:48;2.40;;;1.67;;
5333;SDS011;2689;50.954;7.116;2024-02-04T09:18:18;2.37;;;1.80;;
5333;SDS011;2689;50.954;7.116;2024-02-04T09:20:44;3.10;;;1.83;;
5333;SDS011;2689;50.954;7.116;2024-02-04T09:23:11;2.80;;;1.70;;
5333;SDS011;2689;50.954;7.116;2024-02-04T09:25:38;2.10;;;1.87;;
5333;SDS011;2689;50.954;7.116;2024-02-04T09:28:05;2.07;;;1.50;;
5333;SDS011;2689;50.954;7.116;2024-02-04T09:30:32;1.70;;;1.50;;
5333;SDS011;2689;50.954;7.116;2024-02-04T09:32:58;2.80;;;1.33;;
5333;SDS011;2689;50.954;7.116;2024-02-04T09:35:27;1.77;;;1.43;;
5333;SDS011;2689;50.954;7.116;2024-02-04T09:37:54;2.73;;;1.33;;
5333;SDS011;2689;50.954;7.116;2024-02-04T09:40:22;1.33;;;1.07;;
5333;SDS011;2689;50.954;7.116;2024-02-04T09:42:49;2.13;;;1.43;;
5333;SDS011;2689;50.954;7.116;2024-02-04T09:45:17;2.70;;;1.37;;
5333;SDS011;2689;50.954;7.116;2024-02-04T09:47:44;2.60;;;1.40;;
5333;SDS011;2689;50.954;7.116;2024-02-04T09:50:13;1.70;;;1.20;;
5333;SDS011;2689;50.954;7.116;2024-02-04T09:52:43;1.60;;;1.30;;
5333;SDS011;2689;50.954;7.116;2024-02-04T09:55:15;1.20;;;1.00;;
5333;SDS011;2689;50.954;7.116;2024-02-04T09:57:43;2.03;;;1.20;;
5333;SDS011;2689;50.954;7.116;2024-02-04T10:00:11;3.03;;;2.73;;
5333;SDS011;2689;50.954;7.116;2024-02-04T10:02:39;2.13;;;1.40;;
5333;SDS011;2689;50.954;7.116;2024-02-04T10:05:07;1.60;;;1.50;;
5333;SDS011;2689;50.954;7.116;2024-02-04T10:07:35;2.23;;;1.43;;
5333;SDS011;2689;50.954;7.116;2024-02-04T10:10:04;2.93;;;1.83;;
5333;SDS011;2689;50.954;7.116;2024-02-04T10:12:32;2.30;;;1.37;;
5333;SDS011;2689;50.954;7.116;2024-02-04T10:15:03;1.80;;;1.50;;
5333;SDS011;2689;50.954;7.116;2024-02-04T10:17:31;2.17;;;1.47;;
5333;SDS011;2689;50.954;7.116;2024-02-04T10:19:58;2.20;;;1.50;;
5333;SDS011;2689;50.954;7.116;2024-02-04T10:22:26;2.30;;;1.70;;
5333;SDS011;2689;50.954;7.116;2024-02-04T10:24:53;2.43;;;1.70;;
5333;SDS011;2689;50.954;7.116;2024-02-04T10:27:33;2.50;;;1.60;;
5333;SDS011;2689;50.954;7.116;2024-02-04T10:30:00;3.00;;;1.33;;
5333;SDS011;2689;50.954;7.116;2024-02-04T10:32:26;2.23;;;1.63;;
5333;SDS011;2689;50.954;7.116;2024-02-04T10:34:53;1.87;;;1.40;;
5333;SDS011;2689;50.954;7.116;2024-02-04T10:37:26;1.47;;;1.33;;
5333;SDS011;2689;50.954;7.116;2024-02-04T10:39:55;3.27;;;2.23;;
5333;SDS011;2689;50.954;7.116;2024-02-04T10:42:24;3.13;;;1.77;;
5333;SDS011;2689;50.954;7.116;2024-02-04T10:44:53;2.23;;;1.80;;
5333;SDS011;2689;50.954;7.116;2024-02-04T10:47:22;2.50;;;1.80;;
5333;SDS011;2689;50.954;7.116;2024-02-04T10:49:50;1.67;;;1.37;;
5333;SDS011;2689;50.954;7.116;2024-02-04T10:52:19;2.60;;;2.30;;
5333;SDS011;2689;50.954;7.116;2024-02-04T10:54:48;3.23;;;1.80;;
5333;SDS011;2689;50.954;7.116;2024-02-04T10:57:21;2.27;;;1.80;;
5333;SDS011;2689;50.954;7.116;2024-02-04T10:59:52;3.20;;;2.20;;
5333;SDS011;2689;50.954;7.116;2024-02-04T11:02:24;2.33;;;2.00;;
5333;SDS011;2689;50.954;7.116;2024-02-04T11:04:52;3.47;;;2.40;;
5333;SDS011;2689;50.954;7.116;2024-02-04T11:07:20;1.57;;;1.40;;
5333;SDS011;2689;50.954;7.116;2024-02-04T11:09:48;2.07;;;1.70;;
5333;SDS011;2689;50.954;7.116;2024-02-04T11:12:16;2.20;;;1.57;;
5333;SDS011;2689;50.954;7.116;2024-02-04T11:14:48;2.37;;;1.70;;
5333;SDS011;2689;50.954;7.116;2024-02-04T11:17:34;2.87;;;2.47;;
5333;SDS011;2689;50.954;7.116;2024-02-04T11:20:20;2.17;;;1.30;;
5333;SDS011;2689;50.954;7.116;2024-02-04T11:23:02;2.13;;;1.70;;
5333;SDS011;2689;50.954;7.116;2024-02-04T11:25:46;4.50;;;2.07;;
5333;SDS011;2689;50.954;7.116;2024-02-04T11:28:15;4.90;;;1.80;;
5333;SDS011;2689;50.954;7.116;2024-02-04T11:30:46;1.53;;;1.43;;
5333;SDS011;2689;50.954;7.116;2024-02-04T11:33:17;2.40;;;1.50;;
5333;SDS011;2689;50.954;7.116;2024-02-04T11:35:45;3.20;;;2.53;;
5333;SDS011;2689;50.954;7.116;2024-02-04T11:38:12;2.97;;;1.80;;
5333;SDS011;2689;50.954;7.116;2024-02-04T11:40:43;1.90;;;1.33;;
5333;SDS011;2689;50.954;7.116;2024-02-04T11:43:11;2.40;;;1.63;;
5333;SDS011;2689;50.954;7.116;2024-02-04T11:45:40;1.73;;;1.50;;
5333;SDS011;2689;50.954;7.116;2024-02-04T11:48:10;1.70;;;1.33;;
5333;SDS011;2689;50.954;7.116;2024-02-04T11:50:37;1.40;;;1.30;;
5333;SDS011;2689;50.954;7.116;2024-02-04T11:53:07;2.47;;;1.30;;
5333;SDS011;2689;50.954;7.116;2024-02-04T11:55:35;1.50;;;1.17;;
5333;SDS011;2689;50.954;7.116;2024-02-04T11:58:03;1.50;;;1.23;;
5333;SDS011;2689;50.954;7.116;2024-02-04T12:00:32;3.00;;;1.60;;
5333;SDS011;2689;50.954;7.116;2024-02-04T12:02:59;1.40;;;1.30;;
5333;SDS011;2689;50.954;7.116;2024-02-04T12:05:30;1.67;;;1.50;;
5333;SDS011;2689;50.954;7.116;2024-02-04T12:07:59;3.20;;;2.00;;
5333;SDS011;2689;50.954;7.116;2024-02-04T12:10:26;2.40;;;1.70;;
5333;SDS011;2689;50.954;7.116;2024-02-04T12:12:53;2.73;;;1.90;;
5333;SDS011;2689;50.954;7.116;2024-02-04T12:15:21;3.07;;;1.70;;
5333;SDS011;2689;50.954;7.116;2024-02-04T12:17:48;3.10;;;2.00;;
5333;SDS011;2689;50.954;7.116;2024-02-04T12:20:15;1.87;;;1.60;;
5333;SDS011;2689;50.954;7.116;2024-02-04T12:22:43;1.87;;;1.67;;
5333;SDS011;2689;50.954;7.116;2024-02-04T12:25:10;2.20;;;1.93;;
5333;SDS011;2689;50.954;7.116;2024-02-04T12:27:38;3.30;;;1.77;;
5333;SDS011;2689;50.954;7.116;2024-02-04T12:30:05;1.90;;;1.60;;
5333;SDS011;2689;50.954;7.116;2024-02-04T12:32:33;2.70;;;2.00;;
5333;SDS011;2689;50.954;7.116;2024-02-04T12:35:01;3.53;;;1.60;;
5333;SDS011;2689;50.954;7.116;2024-02-04T12:37:29;1.90;;;1.70;;
5333;SDS011;2689;50.954;7.116;2024-02-04T12:39:57;1.70;;;1.47;;
5333;SDS011;2689;50.954;7.116;2024-02-04T12:42:28;3.20;;;1.83;;
5333;SDS011;2689;50.954;7.116;2024-02-04T12:44:56;2.83;;;2.17;;
5333;SDS011;2689;50.954;7.116;2024-02-04T12:47:24;3.10;;;2.00;;
5333;SDS011;2689;50.954;7.116;2024-02-04T12:49:57;2.47;;;2.27;;
5333;SDS011;2689;50.954;7.116;2024-02-04T12:52:27;1.90;;;1.67;;
5333;SDS011;2689;50.954;7.116;2024-02-04T12:54:57;2.30;;;2.07;;
5333;SDS011;2689;50.954;7.116;2024-02-04T12:57:25;2.87;;;2.10;;
5333;SDS011;2689;50.954;7.116;2024-02-04T13:00:03;2.80;;;2.60;;
5333;SDS011;2689;50.954;7.116;2024-02-04T13:02:31;3.47;;;2.50;;
5333;SDS011;2689;50.954;7.116;2024-02-04T13:04:59;2.50;;;2.10;;
5333;SDS011;2689;50.954;7.116;2024-02-04T13:07:26;1.90;;;1.80;;
5333;SDS011;2689;50.954;7.116;2024-02-04T13:09:58;3.00;;;2.67;;
5333;SDS011;2689;50.954;7.116;2024-02-04T13:12:26;2.30;;;2.10;;
5333;SDS011;2689;50.954;7.116;2024-02-04T13:14:53;4.57;;;2.17;;
5333;SDS011;2689;50.954;7.116;2024-02-04T13:17:20;2.63;;;2.20;;
5333;SDS011;2689;50.954;7.116;2024-02-04T13:19:47;2.97;;;2.13;;
5333;SDS011;2689;50.954;7.116;2024-02-04T13:22:14;2.33;;;2.13;;
5333;SDS011;2689;50.954;7.116;2024-02-04T13:24:43;4.67;;;3.07;;
5333;SDS011;2689;50.954;7.116;2024-02-04T13:27:12;2.47;;;2.27;;
5333;SDS011;2689;50.954;7.116;2024-02-04T13:29:39;2.70;;;2.40;;
5333;SDS011;2689;50.954;7.116;2024-02-04T13:32:06;8.10;;;2.20;;
5333;SDS011;2689;50.954;7.116;2024-02-04T13:34:33;2.83;;;1.93;;
5333;SDS011;2689;50.954;7.116;2024-02-04T13:37:03;3.50;;;2.80;;
5333;SDS011;2689;50.954;7.116;2024-02-04T13:39:30;2.77;;;1.80;;
5333;SDS011;2689;50.954;7.116;2024-02-04T13:41:59;2.60;;;2.40;;
5333;SDS011;2689;50.954;7.116;2024-02-04T13:44:27;2.17;;;1.83;;
5333;SDS011;2689;50.954;7.116;2024-02-04T13:46:54;2.40;;;1.60;;
5333;SDS011;2689;50.954;7.116;2024-02-04T13:49:21;2.00;;;1.80;;
5333;SDS011;2689;50.954;7.116;2024-02-04T13:51:48;4.03;;;1.80;;
5333;SDS011;2689;50.954;7.116;2024-02-04T13:54:15;2.33;;;1.43;;
5333;SDS011;2689;50.954;7.116;2024-02-04T13:56:43;6.57;;;5.27;;
5333;SDS011;2689;50.954;7.116;2024-02-04T13:59:10;3.50;;;2.40;;
5333;SDS011;2689;50.954;7.116;2024-02-04T14:01:40;2.73;;;2.27;;
5333;SDS011;2689;50.954;7.116;2024-02-04T14:04:08;6.07;;;4.50;;
5333;SDS011;2689;50.954;7.116;2024-02-04T14:06:35;1.50;;;1.40;;
5333;SDS011;2689;50.954;7.116;2024-02-04T14:09:03;3.33;;;2.87;;
5333;SDS011;2689;50.954;7.116;2024-02-04T14:11:30;7.33;;;4.90;;
5333;SDS011;2689;50.954;7.116;2024-02-04T14:13:58;2.73;;;2.13;;
5333;SDS011;2689;50.954;7.116;2024-02-04T14:16:25;2.20;;;1.93;;
5333;SDS011;2689;50.954;7.116;2024-02-04T14:18:53;2.60;;;2.33;;
5333;SDS011;2689;50.954;7.116;2024-02-04T14:21:20;1.67;;;1.33;;
5333;SDS011;2689;50.954;7.116;2024-02-04T14:23:47;2.20;;;1.90;;
5333;SDS011;2689;50.954;7.116;2024-02-04T14:26:17;2.30;;;1.97;;
5333;SDS011;2689;50.954;7.116;2024-02-04T14:28:45;1.67;;;1.27;;
5333;SDS011;2689;50.954;7.116;2024-02-04T14:31:12;1.93;;;1.40;;
5333;SDS011;2689;50.954;7.116;2024-02-04T14:33:40;1.50;;;1.33;;
5333;SDS011;2689;50.954;7.116;2024-02-04T14:36:10;1.53;;;1.30;;
5333;SDS011;2689;50.954;7.116;2024-02-04T14:38:37;2.60;;;1.50;;
5333;SDS011;2689;50.954;7.116;2024-02-04T14:41:05;2.43;;;1.70;;
5333;SDS011;2689;50.954;7.116;2024-02-04T14:43:32;3.37;;;1.70;;
5333;SDS011;2689;50.954;7.116;2024-02-04T14:45:59;2.70;;;1.47;;
5333;SDS011;2689;50.954;7.116;2024-02-04T14:48:26;1.90;;;1.50;;
5333;SDS011;2689;50.954;7.116;2024-02-04T14:50:53;3.00;;;2.00;;
5333;SDS011;2689;50.954;7.116;2024-02-04T14:53:23;1.30;;;1.10;;
5333;SDS011;2689;50.954;7.116;2024-02-04T14:55:50;1.80;;;1.60;;
5333;SDS011;2689;50.954;7.116;2024-02-04T14:58:21;1.77;;;1.60;;
5333;SDS011;2689;50.954;7.116;2024-02-04T15:00:48;2.70;;;1.63;;
5333;SDS011;2689;50.954;7.116;2024-02-04T15:03:15;2.13;;;1.53;;
5333;SDS011;2689;50.954;7.116;2024-02-04T15:05:42;1.73;;;1.60;;
5333;SDS011;2689;50.954;7.116;2024-02-04T15:08:09;2.60;;;2.10;;
5333;SDS011;2689;50.954;7.116;2024-02-04T15:10:38;1.50;;;1.30;;
5333;SDS011;2689;50.954;7.116;2024-02-04T15:13:05;5.20;;;2.03;;
5333;SDS011;2689;50.954;7.116;2024-02-04T15:15:32;3.83;;;1.90;;
5333;SDS011;2689;50.954;7.116;2024-02-04T15:18:00;4.43;;;1.67;;